createdAt,value
2023-04-22T00:02:33.858Z,100563.75
2023-04-22T00:07:37.102Z,100562.13
2023-04-22T00:12:38.904Z,100555.97
2023-04-22T00:17:40.984Z,100540.31
2023-04-22T00:22:44.091Z,100541.25
2023-04-22T00:27:45.816Z,100533.41
2023-04-22T00:32:49.033Z,100540.41
2023-04-22T00:37:52.233Z,100529.97
2023-04-22T00:42:53.970Z,100529.13
2023-04-22T00:47:55.865Z,100529.19
2023-04-22T00:52:59.068Z,100520.50
2023-04-22T00:58:00.928Z,100517.88
2023-04-22T01:03:03.106Z,100505.69
2023-04-22T01:08:06.393Z,100515.34
2023-04-22T01:13:08.178Z,100508.38
2023-04-22T01:18:10.051Z,100499.69
2023-04-22T01:23:17.246Z,100507.53
2023-04-22T01:28:19.170Z,100490.13
2023-04-22T01:33:20.971Z,100489.28
2023-04-22T01:38:24.080Z,100491.00
2023-04-22T01:43:25.834Z,100503.22
2023-04-22T01:48:28.007Z,100497.16
2023-04-22T01:53:31.099Z,100485.84
2023-04-22T01:58:33.401Z,100482.38
2023-04-22T02:03:35.209Z,100492.91
2023-04-22T02:08:38.837Z,100485.91
2023-04-22T02:13:41.147Z,100485.06
2023-04-22T02:18:43.004Z,100478.94
2023-04-22T02:23:46.120Z,100482.44
2023-04-22T02:28:48.392Z,100477.22
2023-04-22T02:33:50.142Z,100478.09
2023-04-22T02:38:53.624Z,100483.34
2023-04-22T02:43:55.306Z,100471.16
2023-04-22T02:48:57.284Z,100472.03
2023-04-22T02:54:00.453Z,100457.25
2023-04-22T02:59:02.313Z,100456.38
2023-04-22T03:04:04.236Z,100453.75
2023-04-22T03:09:07.442Z,100457.22
2023-04-22T03:14:09.264Z,100458.09
2023-04-22T03:19:11.047Z,100452.88
2023-04-22T03:24:14.182Z,100441.56
2023-04-22T03:29:21.611Z,100428.47
2023-04-22T03:34:23.927Z,100416.31
2023-04-22T03:39:27.287Z,100425.03
2023-04-22T03:44:29.137Z,100432.88
2023-04-22T03:49:31.061Z,100430.22
2023-04-22T03:54:34.218Z,100432.00
2023-04-22T03:59:36.261Z,100430.25
2023-04-22T04:04:38.414Z,100418.06
2023-04-22T04:09:43.678Z,100429.38
2023-04-22T04:14:46.371Z,100419.78
2023-04-22T04:19:52.192Z,100413.69
2023-04-22T04:24:56.170Z,100420.66
2023-04-22T04:30:03.912Z,100411.09
2023-04-22T04:35:35.809Z,100425.03
2023-04-22T04:40:39.578Z,100419.78
2023-04-22T04:45:49.654Z,100418.06
2023-04-22T04:50:56.632Z,100410.22
2023-04-22T04:56:02.460Z,100421.53
2023-04-22T05:01:05.236Z,100422.41
2023-04-22T05:06:07.667Z,100425.88
2023-04-22T05:11:13.359Z,100418.03
2023-04-22T05:16:16.787Z,100420.59
2023-04-22T05:21:18.822Z,100416.25
2023-04-22T05:26:22.059Z,100415.28
2023-04-22T05:31:25.368Z,100413.53
2023-04-22T05:36:29.814Z,100411.72
2023-04-22T05:41:34.656Z,100405.63
2023-04-22T05:46:37.596Z,100402.94
2023-04-22T05:51:39.770Z,100401.91
2023-04-22T05:56:42.984Z,100404.34
2023-04-22T06:01:45.328Z,100396.34
2023-04-22T06:06:53.967Z,100399.53
2023-04-22T06:11:58.141Z,100397.00
2023-04-22T06:17:00.270Z,100389.91
2023-04-22T06:22:02.103Z,100399.88
2023-04-22T06:27:05.326Z,100401.09
2023-04-22T06:32:07.083Z,100396.34
2023-04-22T06:37:09.041Z,100394.56
2023-04-22T06:42:12.440Z,100400.50
2023-04-22T06:47:24.167Z,100397.31
2023-04-22T06:52:42.648Z,100393.75
2023-04-22T06:57:45.900Z,100382.25
2023-04-22T07:02:47.727Z,100379.00
2023-04-22T07:07:49.622Z,100378.22
2023-04-22T07:12:56.930Z,100367.69
2023-04-22T07:17:58.675Z,100352.72
2023-04-22T07:23:00.441Z,100364.31
2023-04-22T07:28:03.497Z,100369.06
2023-04-22T07:33:05.251Z,100363.13
2023-04-22T07:38:09.869Z,100353.44
2023-04-22T07:43:14.282Z,100347.66
2023-04-22T07:48:17.006Z,100357.22
2023-04-22T07:53:19.244Z,100342.06
2023-04-22T07:58:22.563Z,100335.56
2023-04-22T08:03:24.825Z,100339.16
2023-04-22T08:08:26.674Z,100342.00
2023-04-22T08:13:29.692Z,100342.16
2023-04-22T08:18:31.376Z,100343.53
2023-04-22T08:23:33.153Z,100332.63
2023-04-22T08:28:36.216Z,100335.72
2023-04-22T08:33:38.000Z,100333.09
2023-04-22T08:38:39.920Z,100326.00
2023-04-22T08:43:43.397Z,100319.72
2023-04-22T08:48:45.210Z,100308.00
2023-04-22T08:53:49.547Z,100313.88
2023-04-22T08:58:52.669Z,100305.69
2023-04-22T09:03:54.458Z,100307.41
2023-04-22T09:08:56.192Z,100301.38
2023-04-22T09:13:59.361Z,100300.84
2023-04-22T09:19:01.569Z,100292.94
2023-04-22T09:24:04.138Z,100289.47
2023-04-22T09:29:09.451Z,100287.13
2023-04-22T09:34:13.747Z,100282.88
2023-04-22T09:39:15.659Z,100287.41
2023-04-22T09:44:19.853Z,100272.78
2023-04-22T09:49:25.197Z,100273.38
2023-04-22T09:54:26.910Z,100273.78
2023-04-22T09:59:30.446Z,100266.84
2023-04-22T10:04:34.371Z,100272.59
2023-04-22T10:09:36.259Z,100271.00
2023-04-22T10:14:39.526Z,100255.19
2023-04-22T10:19:41.599Z,100255.66
2023-04-22T10:24:44.663Z,100245.69
2023-04-22T10:29:47.677Z,100239.75
2023-04-22T10:34:49.678Z,100227.78
2023-04-22T10:40:06.532Z,100222.75
2023-04-22T10:45:13.091Z,100220.00
2023-04-22T10:50:21.156Z,100214.56
2023-04-22T10:55:22.996Z,100214.94
2023-04-22T11:00:38.606Z,100198.00
2023-04-22T11:05:47.972Z,100197.84
2023-04-22T11:10:50.408Z,100201.06
2023-04-22T11:15:54.573Z,100212.44
2023-04-22T11:20:56.322Z,100178.69
2023-04-22T11:25:59.139Z,100174.00
2023-04-22T11:31:06.569Z,100165.28
2023-04-22T11:36:10.071Z,100169.16
2023-04-22T11:41:11.808Z,100168.03
2023-04-22T11:46:14.984Z,100154.81
2023-04-22T11:51:16.796Z,100161.06
2023-04-22T11:56:18.528Z,100154.72
2023-04-22T12:01:21.664Z,100159.91
2023-04-22T12:06:23.420Z,100152.53
2023-04-22T12:11:25.196Z,100139.75
2023-04-22T12:16:28.256Z,100131.91
2023-04-22T12:21:30.018Z,100140.88
2023-04-22T12:26:32.090Z,100118.13
2023-04-22T12:31:35.806Z,100120.97
2023-04-22T12:36:37.668Z,100108.00
2023-04-22T12:41:39.400Z,100108.00
2023-04-22T12:46:42.522Z,100098.69
2023-04-22T12:51:44.240Z,100096.66
2023-04-22T12:56:46.035Z,100102.28
2023-04-22T13:01:49.090Z,100094.66
2023-04-22T13:06:56.071Z,100087.66
2023-04-22T13:11:58.342Z,100090.13
2023-04-22T13:17:01.420Z,100084.53
2023-04-22T13:22:03.474Z,100077.91
2023-04-22T13:27:07.123Z,100074.31
2023-04-22T13:32:10.201Z,100071.53
2023-04-22T13:37:12.097Z,100070.59
2023-04-22T13:42:13.781Z,100072.84
2023-04-22T13:47:16.799Z,100065.91
2023-04-22T13:52:18.517Z,100056.03
2023-04-22T13:57:20.451Z,100062.41
2023-04-22T14:02:23.753Z,100053.06
2023-04-22T14:07:25.554Z,100052.00
2023-04-22T14:12:27.338Z,100039.78
2023-04-22T14:17:30.442Z,100046.19
2023-04-22T14:22:32.173Z,100029.16
2023-04-22T14:27:35.279Z,100030.47
2023-04-22T14:32:38.357Z,100031.41
2023-04-22T14:37:41.625Z,100029.78
2023-04-22T14:42:43.380Z,100019.63
2023-04-22T14:47:46.514Z,100021.69
2023-04-22T14:52:48.326Z,100017.91
2023-04-22T14:57:50.456Z,100020.56
2023-04-22T15:02:54.061Z,100012.78
2023-04-22T15:07:57.690Z,100009.75
2023-04-22T15:13:00.518Z,99998.97
2023-04-22T15:18:05.391Z,99998.84
2023-04-22T15:23:07.151Z,99987.78
2023-04-22T15:28:08.953Z,99991.41
2023-04-22T15:33:12.070Z,99991.91
2023-04-22T15:38:14.014Z,99971.97
2023-04-22T15:43:15.776Z,99972.63
2023-04-22T15:48:18.919Z,99977.47
2023-04-22T15:53:20.640Z,99969.22
2023-04-22T15:58:22.364Z,99970.81
2023-04-22T16:03:25.825Z,99967.84
2023-04-22T16:08:27.673Z,99966.38
2023-04-22T16:13:29.534Z,99958.19
2023-04-22T16:18:32.677Z,99947.38
2023-04-22T16:23:34.700Z,99957.69
2023-04-22T16:28:36.438Z,99949.66
2023-04-22T16:33:39.444Z,99950.78
2023-04-22T16:38:41.179Z,99945.28
2023-04-22T16:43:43.052Z,99952.38
2023-04-22T16:48:46.076Z,99947.28
2023-04-22T16:53:47.776Z,99946.44
2023-04-22T16:58:49.593Z,99942.28
2023-04-22T17:03:52.809Z,99934.44
2023-04-22T17:08:54.631Z,99945.22
2023-04-22T17:13:56.310Z,99930.72
2023-04-22T17:18:59.401Z,99931.81
2023-04-22T17:24:02.226Z,99932.69
2023-04-22T17:29:03.912Z,99931.38
2023-04-22T17:34:06.966Z,99926.31
2023-04-22T17:39:08.841Z,99921.28
2023-04-22T17:44:11.386Z,99915.59
2023-04-22T17:49:14.430Z,99915.03
2023-04-22T17:54:16.184Z,99924.53
2023-04-22T17:59:18.693Z,99923.69
2023-04-22T18:04:21.847Z,99914.63
2023-04-22T18:09:23.720Z,99917.00
2023-04-22T18:14:26.571Z,99914.50
2023-04-22T18:19:29.713Z,99914.94
2023-04-22T18:24:31.499Z,99923.50
2023-04-22T18:29:33.374Z,99921.72
2023-04-22T18:34:36.427Z,99932.00
2023-04-22T18:39:39.557Z,99928.53
2023-04-22T18:44:41.795Z,99934.00
2023-04-22T18:49:45.528Z,99932.78
2023-04-22T18:54:47.341Z,99942.66
2023-04-22T18:59:49.200Z,99944.13
2023-04-22T19:04:54.126Z,99947.81
2023-04-22T19:09:55.927Z,99944.72
2023-04-22T19:15:00.147Z,99942.56
2023-04-22T19:20:05.330Z,99937.63
2023-04-22T19:25:07.996Z,99942.69
2023-04-22T19:30:11.691Z,99940.44
2023-04-22T19:35:16.165Z,99946.06
2023-04-22T19:40:18.849Z,99952.22
2023-04-22T19:45:21.486Z,99970.19
2023-04-22T19:50:25.089Z,99977.25
2023-04-22T19:55:27.014Z,99975.53
2023-04-22T20:00:30.862Z,99980.94
2023-04-22T20:05:34.793Z,99986.50
2023-04-22T20:10:36.759Z,99973.66
2023-04-22T20:15:39.218Z,99976.41
2023-04-22T20:20:45.420Z,99986.84
2023-04-22T20:25:47.281Z,99982.41
2023-04-22T20:30:49.529Z,99974.81
2023-04-22T20:35:52.742Z,99975.16
2023-04-22T20:40:54.511Z,99971.00
2023-04-22T20:45:56.296Z,99965.00
2023-04-22T20:50:59.467Z,99958.53
2023-04-22T20:56:01.258Z,99956.88
2023-04-22T21:01:03.682Z,99964.69
2023-04-22T21:06:07.806Z,99960.00
2023-04-22T21:11:09.686Z,99948.47
2023-04-22T21:16:11.822Z,99949.41
2023-04-22T21:21:15.748Z,99949.94
2023-04-22T21:26:17.623Z,99951.34
2023-04-22T21:31:20.097Z,99946.84
2023-04-22T21:36:24.849Z,99949.56
2023-04-22T21:41:26.614Z,99947.91
2023-04-22T21:46:28.433Z,99941.72
2023-04-22T21:51:32.398Z,99944.34
2023-04-22T21:56:34.197Z,99944.06
2023-04-22T22:01:35.992Z,99945.28
2023-04-22T22:06:39.106Z,99950.09
2023-04-22T22:11:40.911Z,99951.31
2023-04-22T22:16:43.729Z,99954.38
2023-04-22T22:21:46.806Z,99946.03
2023-04-22T22:26:48.910Z,99959.66
2023-04-22T22:31:50.644Z,99971.00
2023-04-22T22:36:53.743Z,99963.75
2023-04-22T22:41:55.494Z,99971.44
2023-04-22T22:46:57.242Z,99970.34
2023-04-22T22:52:01.492Z,99966.81
2023-04-22T22:57:05.316Z,99975.34
2023-04-22T23:02:07.165Z,99971.44
2023-04-22T23:07:10.410Z,99979.53
2023-04-22T23:12:12.182Z,99974.91
2023-04-22T23:17:13.910Z,99973.38
2023-04-22T23:22:16.990Z,99968.94
2023-04-22T23:27:19.117Z,99972.56
2023-04-22T23:32:20.856Z,99969.31
2023-04-22T23:37:24.000Z,99974.22
2023-04-22T23:42:25.965Z,99968.09
2023-04-22T23:47:27.729Z,99968.31
2023-04-22T23:52:30.869Z,99966.44
2023-04-22T23:57:33.258Z,99968.91
